createdAt,value
2018-02-08T00:00:58.227Z,86.82
2018-02-08T00:03:26.644Z,72.70
2018-02-08T00:05:55.004Z,80.70
2018-02-08T00:08:22.620Z,79.35
2018-02-08T00:10:50.166Z,88.78
2018-02-08T00:13:17.669Z,84.32
2018-02-08T00:15:45.234Z,89.45
2018-02-08T00:18:13.551Z,79.15
2018-02-08T00:20:41.125Z,79.90
2018-02-08T00:23:08.834Z,87.37
2018-02-08T00:25:37.146Z,78.57
2018-02-08T00:28:04.666Z,87.15
2018-02-08T00:30:32.208Z,94.90
2018-02-08T00:32:59.798Z,79.20
2018-02-08T00:35:27.328Z,70.95
2018-02-08T00:37:54.856Z,86.40
2018-02-08T00:40:22.378Z,86.78
2018-02-08T00:42:49.922Z,88.97
2018-02-08T00:45:18.240Z,88.65
2018-02-08T00:47:45.773Z,89.05
2018-02-08T00:50:14.072Z,93.50
2018-02-08T00:52:41.625Z,86.05
2018-02-08T00:55:09.164Z,93.57
2018-02-08T00:57:37.446Z,89.45
2018-02-08T01:00:04.964Z,87.03
2018-02-08T01:02:32.522Z,92.32
2018-02-08T01:05:00.051Z,93.28
2018-02-08T01:07:27.614Z,96.25
2018-02-08T01:09:55.142Z,82.53
2018-02-08T01:12:22.701Z,84.10
2018-02-08T01:14:50.976Z,81.40
2018-02-08T01:17:19.268Z,78.30
2018-02-08T01:19:46.794Z,99.87
2018-02-08T01:22:14.311Z,92.10
2018-02-08T01:24:41.843Z,99.03
2018-02-08T01:27:09.386Z,95.78
2018-02-08T01:29:36.975Z,84.85
2018-02-08T01:32:04.496Z,82.47
2018-02-08T01:34:32.042Z,94.00
2018-02-08T01:36:59.566Z,88.15
2018-02-08T01:39:27.098Z,89.13
2018-02-08T01:41:54.741Z,94.65
2018-02-08T01:44:22.282Z,85.57
2018-02-08T01:46:49.793Z,82.55
2018-02-08T01:49:17.328Z,89.45
2018-02-08T01:51:44.860Z,83.80
2018-02-08T01:54:12.389Z,79.70
2018-02-08T01:56:39.935Z,92.95
2018-02-08T01:59:07.448Z,78.82
2018-02-08T02:01:34.988Z,97.57
2018-02-08T02:04:02.510Z,80.30
2018-02-08T02:06:30.043Z,85.85
2018-02-08T02:08:58.359Z,96.10
2018-02-08T02:11:25.877Z,87.00
2018-02-08T02:13:54.086Z,91.75
2018-02-08T02:16:21.624Z,103.32
2018-02-08T02:18:49.928Z,82.78
2018-02-08T02:21:17.479Z,80.30
2018-02-08T02:23:44.994Z,80.38
2018-02-08T02:26:12.502Z,77.00
2018-02-08T02:28:40.022Z,90.80
2018-02-08T02:31:08.341Z,82.45
2018-02-08T02:33:35.892Z,82.12
2018-02-08T02:36:03.421Z,79.53
2018-02-08T02:38:30.974Z,83.80
2018-02-08T02:40:58.496Z,76.22
2018-02-08T02:43:26.056Z,80.38
2018-02-08T02:45:53.623Z,79.28
2018-02-08T02:48:21.187Z,95.62
2018-02-08T02:50:48.727Z,84.55
2018-02-08T02:53:16.281Z,89.72
2018-02-08T02:55:43.824Z,80.35
2018-02-08T02:58:11.379Z,81.95
2018-02-08T03:00:38.931Z,78.78
2018-02-08T03:03:06.428Z,89.65
2018-02-08T03:05:33.951Z,84.25
2018-02-08T03:08:02.234Z,84.15
2018-02-08T03:10:30.514Z,80.22
2018-02-08T03:12:58.063Z,85.03
2018-02-08T03:15:25.577Z,93.10
2018-02-08T03:17:53.199Z,79.53
2018-02-08T03:20:20.740Z,84.15
2018-02-08T03:22:49.032Z,79.47
2018-02-08T03:25:16.583Z,89.72
2018-02-08T03:27:44.089Z,80.87
2018-02-08T03:30:11.645Z,77.45
2018-02-08T03:32:39.195Z,90.12
2018-02-08T03:35:06.761Z,91.55
2018-02-08T03:37:34.305Z,86.03
2018-02-08T03:40:01.819Z,68.47
2018-02-08T03:42:29.357Z,70.82
2018-02-08T03:44:56.898Z,78.75
2018-02-08T03:47:24.439Z,80.70
2018-02-08T03:49:51.971Z,81.37
2018-02-08T03:52:19.525Z,75.78
2018-02-08T03:54:47.836Z,80.50
2018-02-08T03:57:15.376Z,86.03
2018-02-08T03:59:43.653Z,71.10
2018-02-08T04:02:11.184Z,73.87
2018-02-08T04:04:38.690Z,73.90
2018-02-08T04:07:06.211Z,70.90
2018-02-08T04:09:33.729Z,80.00
2018-02-08T04:12:02.019Z,85.10
2018-02-08T04:14:29.537Z,75.05
2018-02-08T04:16:57.049Z,70.85
2018-02-08T04:19:24.564Z,73.45
2018-02-08T04:21:52.112Z,84.13
2018-02-08T04:24:19.630Z,68.57
2018-02-08T04:26:47.202Z,75.40
2018-02-08T04:29:14.718Z,73.60
2018-02-08T04:31:42.234Z,77.95
2018-02-08T04:34:09.790Z,70.37
2018-02-08T04:36:38.070Z,77.85
2018-02-08T04:39:18.040Z,70.10
2018-02-08T04:41:57.345Z,68.90
2018-02-08T04:44:36.798Z,73.37
2018-02-08T04:47:13.027Z,69.97
2018-02-08T04:49:40.573Z,71.43
2018-02-08T04:52:08.103Z,63.20
2018-02-08T04:54:35.628Z,75.87
2018-02-08T04:57:03.156Z,70.30
2018-02-08T04:59:30.681Z,70.90
2018-02-08T05:02:13.131Z,78.90
2018-02-08T05:04:40.667Z,73.70
2018-02-08T05:07:08.167Z,80.45
2018-02-08T05:09:35.712Z,79.60
2018-02-08T05:12:03.274Z,68.62
2018-02-08T05:14:30.808Z,66.62
2018-02-08T05:16:58.324Z,71.82
2018-02-08T05:19:25.881Z,77.12
2018-02-08T05:21:54.170Z,72.45
2018-02-08T05:24:22.452Z,72.55
2018-02-08T05:26:50.758Z,76.20
2018-02-08T05:29:19.384Z,69.32
2018-02-08T05:31:46.900Z,74.28
2018-02-08T05:34:14.421Z,77.78
2018-02-08T05:36:42.722Z,77.93
2018-02-08T05:39:10.249Z,80.97
2018-02-08T05:41:38.635Z,79.10
2018-02-08T05:44:06.977Z,66.30
2018-02-08T05:46:35.347Z,74.30
2018-02-08T05:49:02.910Z,72.78
2018-02-08T05:51:30.534Z,74.32
2018-02-08T05:53:58.075Z,72.03
2018-02-08T05:56:26.389Z,65.07
2018-02-08T05:58:53.924Z,68.60
2018-02-08T06:01:21.437Z,72.53
2018-02-08T06:03:48.986Z,69.05
2018-02-08T06:06:16.541Z,80.15
2018-02-08T06:08:44.065Z,60.72
2018-02-08T06:11:11.587Z,77.25
2018-02-08T06:13:39.127Z,76.00
2018-02-08T06:16:06.630Z,67.50
2018-02-08T06:18:34.948Z,71.65
2018-02-08T06:21:03.493Z,66.68
2018-02-08T06:23:32.218Z,83.30
2018-02-08T06:25:59.757Z,71.22
2018-02-08T06:28:27.286Z,76.82
2018-02-08T06:30:55.029Z,76.35
2018-02-08T06:33:22.566Z,72.82
2018-02-08T06:35:50.132Z,70.97
2018-02-08T06:38:17.646Z,73.65
2018-02-08T06:40:45.925Z,74.80
2018-02-08T06:43:14.202Z,71.53
2018-02-08T06:45:41.722Z,79.43
2018-02-08T06:48:09.270Z,71.35
2018-02-08T06:50:36.789Z,85.78
2018-02-08T06:53:04.316Z,72.60
2018-02-08T06:55:31.837Z,74.20
2018-02-08T06:57:59.362Z,74.18
2018-02-08T07:00:27.659Z,81.70
2018-02-08T07:02:56.214Z,67.72
2018-02-08T07:05:23.918Z,62.30
2018-02-08T07:07:51.537Z,65.07
2018-02-08T07:10:19.837Z,75.78
2018-02-08T07:12:47.362Z,81.50
2018-02-08T07:15:15.696Z,85.25
2018-02-08T07:17:43.200Z,67.97
2018-02-08T07:20:11.497Z,63.87
2018-02-08T07:22:39.031Z,83.85
2018-02-08T07:25:06.543Z,72.37
2018-02-08T07:27:34.074Z,74.18
2018-02-08T07:30:02.363Z,73.57
2018-02-08T07:32:29.874Z,79.10
2018-02-08T07:34:57.415Z,66.25
2018-02-08T07:37:24.929Z,77.95
2018-02-08T07:39:52.455Z,83.50
2018-02-08T07:42:19.982Z,70.25
2018-02-08T07:44:47.520Z,71.87
2018-02-08T07:47:15.114Z,70.18
2018-02-08T07:49:42.633Z,76.18
2018-02-08T07:52:10.149Z,83.65
2018-02-08T07:54:37.673Z,77.70
2018-02-08T07:57:05.183Z,69.65
2018-02-08T07:59:32.771Z,74.07
2018-02-08T08:02:00.329Z,89.40
2018-02-08T08:04:27.853Z,85.75
2018-02-08T08:06:55.392Z,57.40
2018-02-08T08:09:22.893Z,66.97
2018-02-08T08:11:50.421Z,75.10
2018-02-08T08:14:17.945Z,70.37
2018-02-08T08:16:45.467Z,74.85
2018-02-08T08:19:12.970Z,70.32
2018-02-08T08:21:40.491Z,78.35
2018-02-08T08:24:08.800Z,77.05
2018-02-08T08:26:37.150Z,80.68
2018-02-08T08:29:04.670Z,85.28
2018-02-08T08:31:32.170Z,85.47
2018-02-08T08:34:00.478Z,77.57
2018-02-08T08:36:27.991Z,80.22
2018-02-08T08:38:55.779Z,82.85
2018-02-08T08:41:23.324Z,73.35
2018-02-08T08:43:50.835Z,73.65
2018-02-08T08:46:18.345Z,79.10
2018-02-08T08:48:46.637Z,72.25
2018-02-08T08:51:14.209Z,81.00
2018-02-08T08:53:41.773Z,73.20
2018-02-08T08:56:09.317Z,77.12
2018-02-08T08:58:36.856Z,68.35
2018-02-08T09:01:05.149Z,80.43
2018-02-08T09:03:33.426Z,79.28
2018-02-08T09:06:01.706Z,83.15
2018-02-08T09:08:29.983Z,73.20
2018-02-08T09:10:58.266Z,65.45
2018-02-08T09:13:25.795Z,79.50
2018-02-08T09:15:53.319Z,67.78
2018-02-08T09:18:20.954Z,77.97
2018-02-08T09:20:48.487Z,70.28
2018-02-08T09:23:16.786Z,68.00
2018-02-08T09:25:44.305Z,65.07
2018-02-08T09:28:11.822Z,68.78
2018-02-08T09:30:39.365Z,65.90
2018-02-08T09:33:06.886Z,77.80
2018-02-08T09:35:34.424Z,67.57
2018-02-08T09:38:01.998Z,72.47
2018-02-08T09:40:29.524Z,58.63
2018-02-08T09:42:57.048Z,63.20
2018-02-08T09:45:25.332Z,61.20
2018-02-08T09:47:53.627Z,63.78
2018-02-08T09:50:21.187Z,56.40
2018-02-08T09:52:48.709Z,56.25
2018-02-08T09:55:17.020Z,67.72
2018-02-08T09:57:44.552Z,66.78
2018-02-08T10:00:12.098Z,58.45
2018-02-08T10:02:39.621Z,56.65
2018-02-08T10:05:07.127Z,57.55
2018-02-08T10:07:35.677Z,54.00
2018-02-08T10:10:03.220Z,53.40
2018-02-08T10:12:30.755Z,52.50
2018-02-08T10:14:58.277Z,52.22
2018-02-08T10:17:25.811Z,52.62
2018-02-08T10:19:53.332Z,49.92
2018-02-08T10:22:20.841Z,45.38
2018-02-08T10:24:48.367Z,50.67
2018-02-08T10:27:15.895Z,47.13
2018-02-08T10:29:43.436Z,57.47
2018-02-08T10:32:11.732Z,48.72
2018-02-08T10:34:40.042Z,47.05
2018-02-08T10:37:07.560Z,49.63
2018-02-08T10:39:35.091Z,43.75
2018-02-08T10:42:02.681Z,44.80
2018-02-08T10:44:30.206Z,49.55
2018-02-08T10:46:57.733Z,40.28
2018-02-08T10:49:25.256Z,50.90
2018-02-08T10:51:53.535Z,45.83
2018-02-08T10:54:21.062Z,47.72
2018-02-08T10:56:48.573Z,44.67
2018-02-08T10:59:16.086Z,48.75
2018-02-08T11:01:43.602Z,44.85
2018-02-08T11:04:11.140Z,40.22
2018-02-08T11:06:39.427Z,40.90
2018-02-08T11:09:06.938Z,40.03
2018-02-08T11:11:34.446Z,42.45
2018-02-08T11:14:01.946Z,43.67
2018-02-08T11:16:29.463Z,40.33
2018-02-08T11:18:56.973Z,41.45
2018-02-08T11:21:24.481Z,39.85
2018-02-08T11:23:52.000Z,42.05
2018-02-08T11:26:19.559Z,40.97
2018-02-08T11:28:47.057Z,47.83
2018-02-08T11:31:14.655Z,37.60
2018-02-08T11:33:42.171Z,40.33
2018-02-08T11:36:09.730Z,40.35
2018-02-08T11:38:38.025Z,38.85
2018-02-08T11:41:05.531Z,35.70
2018-02-08T11:43:33.065Z,34.03
2018-02-08T11:46:00.590Z,35.08
2018-02-08T11:48:28.121Z,42.08
2018-02-08T11:50:55.666Z,40.25
2018-02-08T11:53:23.213Z,36.53
2018-02-08T11:55:50.719Z,39.10
2018-02-08T11:58:18.302Z,44.30
2018-02-08T12:00:45.810Z,45.10
2018-02-08T12:03:13.399Z,39.33
2018-02-08T12:05:41.672Z,36.25
2018-02-08T12:08:10.006Z,48.08
2018-02-08T12:10:37.558Z,42.47
2018-02-08T12:13:05.074Z,36.30
2018-02-08T12:15:33.377Z,44.00
2018-02-08T12:18:00.947Z,40.22
2018-02-08T12:20:28.568Z,39.53
2018-02-08T12:22:56.260Z,40.03
2018-02-08T12:25:23.787Z,39.38
2018-02-08T12:27:52.077Z,40.50
2018-02-08T12:30:20.373Z,43.80
2018-02-08T12:32:47.902Z,30.42
2018-02-08T12:35:15.457Z,41.05
2018-02-08T12:37:43.781Z,37.40
2018-02-08T12:40:11.350Z,32.13
2018-02-08T12:42:38.897Z,36.40
2018-02-08T12:45:06.471Z,39.85
2018-02-08T12:47:34.016Z,40.47
2018-02-08T12:50:01.554Z,39.55
2018-02-08T12:52:29.091Z,40.20
2018-02-08T12:54:57.409Z,41.05
2018-02-08T12:57:24.952Z,38.55
2018-02-08T12:59:52.510Z,39.75
2018-02-08T13:02:20.785Z,41.58
2018-02-08T13:04:49.093Z,43.25
2018-02-08T13:07:16.625Z,36.90
2018-02-08T13:09:44.181Z,34.45
2018-02-08T13:12:12.488Z,38.05
2018-02-08T13:14:40.011Z,35.35
2018-02-08T13:17:07.536Z,36.95
2018-02-08T13:19:35.064Z,42.75
2018-02-08T13:22:02.585Z,41.22
2018-02-08T13:24:30.116Z,36.95
2018-02-08T13:26:57.644Z,37.30
2018-02-08T13:29:25.161Z,39.83
2018-02-08T13:31:56.319Z,35.78
2018-02-08T13:34:23.861Z,35.92
2018-02-08T13:36:51.447Z,33.78
2018-02-08T13:39:19.465Z,41.63
2018-02-08T13:41:47.038Z,38.55
2018-02-08T13:44:14.579Z,35.50
2018-02-08T13:46:42.092Z,41.67
2018-02-08T13:49:15.361Z,35.75
2018-02-08T13:51:59.578Z,37.30
2018-02-08T13:54:32.727Z,34.00
2018-02-08T13:57:04.088Z,35.63
2018-02-08T13:59:43.475Z,34.88
2018-02-08T14:02:11.039Z,37.33
2018-02-08T14:04:38.562Z,43.97
2018-02-08T14:07:06.080Z,37.10
2018-02-08T14:09:34.497Z,34.80
2018-02-08T14:12:02.039Z,37.97
2018-02-08T14:14:30.362Z,37.47
2018-02-08T14:16:57.853Z,36.58
2018-02-08T14:19:25.397Z,44.15
2018-02-08T14:21:52.899Z,38.67
2018-02-08T14:24:20.421Z,44.85
2018-02-08T14:26:47.983Z,39.95
2018-02-08T14:29:16.311Z,42.95
2018-02-08T14:31:43.842Z,41.92
2018-02-08T14:34:12.147Z,40.50
2018-02-08T14:36:39.672Z,36.83
2018-02-08T14:39:08.012Z,37.25
2018-02-08T14:41:35.575Z,35.25
2018-02-08T14:44:03.221Z,42.90
2018-02-08T14:46:30.742Z,38.60
2018-02-08T14:48:59.039Z,44.90
2018-02-08T14:51:26.547Z,40.53
2018-02-08T14:53:54.088Z,44.78
2018-02-08T14:56:21.619Z,40.20
2018-02-08T14:58:49.139Z,38.20
2018-02-08T15:01:16.661Z,41.50
2018-02-08T15:03:44.209Z,38.70
2018-02-08T15:06:11.714Z,36.75
2018-02-08T15:08:39.250Z,35.00
2018-02-08T15:11:06.823Z,38.05
2018-02-08T15:13:34.360Z,36.38
2018-02-08T15:16:03.743Z,32.60
2018-02-08T15:18:31.274Z,35.65
2018-02-08T15:20:58.793Z,37.35
2018-02-08T15:23:26.308Z,39.28
2018-02-08T15:25:53.816Z,42.58
2018-02-08T15:28:21.352Z,31.27
2018-02-08T15:30:48.866Z,33.60
2018-02-08T15:33:17.304Z,36.13
2018-02-08T15:35:44.835Z,35.50
2018-02-08T15:38:12.506Z,34.80
2018-02-08T15:40:40.623Z,41.50
2018-02-08T15:43:08.203Z,28.87
2018-02-08T15:45:36.494Z,33.30
2018-02-08T15:48:04.030Z,39.35
2018-02-08T15:50:32.310Z,36.08
2018-02-08T15:52:59.849Z,31.52
2018-02-08T15:55:27.416Z,32.90
2018-02-08T15:57:54.981Z,32.92
2018-02-08T16:00:22.495Z,28.02
2018-02-08T16:02:50.089Z,33.92
2018-02-08T16:05:17.667Z,33.13
2018-02-08T16:07:46.098Z,37.80
2018-02-08T16:10:13.659Z,29.55
2018-02-08T16:12:41.165Z,29.37
2018-02-08T16:15:08.690Z,29.60
2018-02-08T16:17:36.198Z,34.67
2018-02-08T16:20:03.704Z,33.85
2018-02-08T16:22:31.226Z,32.00
2018-02-08T16:24:59.530Z,32.88
2018-02-08T16:27:27.103Z,39.03
2018-02-08T16:29:55.449Z,32.20
2018-02-08T16:32:23.594Z,47.53
2018-02-08T16:34:51.138Z,41.20
2018-02-08T16:37:23.517Z,36.78
2018-02-08T16:39:51.295Z,38.20
2018-02-08T16:42:18.908Z,38.17
2018-02-08T16:44:49.139Z,34.50
2018-02-08T16:47:16.694Z,35.13
2018-02-08T16:49:46.271Z,35.92
2018-02-08T16:52:15.154Z,37.95
2018-02-08T16:54:42.730Z,40.22
2018-02-08T16:57:10.255Z,34.47
2018-02-08T16:59:37.789Z,42.72
2018-02-08T17:02:05.369Z,44.25
2018-02-08T17:04:32.923Z,36.55
2018-02-08T17:07:00.468Z,44.75
2018-02-08T17:09:28.011Z,41.67
2018-02-08T17:11:55.543Z,43.13
2018-02-08T17:14:23.061Z,39.28
2018-02-08T17:16:50.679Z,43.40
2018-02-08T17:19:18.271Z,48.70
2018-02-08T17:21:46.597Z,52.22
2018-02-08T17:24:14.981Z,56.58
2018-02-08T17:26:42.513Z,44.03
2018-02-08T17:29:10.068Z,45.17
2018-02-08T17:31:37.938Z,45.25
2018-02-08T17:34:05.907Z,43.10
2018-02-08T17:36:33.449Z,40.85
2018-02-08T17:39:00.971Z,42.22
2018-02-08T17:41:28.562Z,39.28
2018-02-08T17:43:56.104Z,43.65
2018-02-08T17:46:24.333Z,50.75
2018-02-08T17:48:52.132Z,49.90
2018-02-08T17:51:19.829Z,47.83
2018-02-08T17:53:47.383Z,48.40
2018-02-08T17:56:15.941Z,44.50
2018-02-08T17:58:43.537Z,44.20
2018-02-08T18:01:11.131Z,39.35
2018-02-08T18:03:38.684Z,46.55
2018-02-08T18:06:07.229Z,49.88
2018-02-08T18:08:34.777Z,37.00
2018-02-08T18:11:02.349Z,48.35
2018-02-08T18:13:29.887Z,42.25
2018-02-08T18:15:57.422Z,42.13
2018-02-08T18:18:25.855Z,59.00
2018-02-08T18:20:53.435Z,42.33
2018-02-08T18:23:20.971Z,56.75
2018-02-08T18:25:48.520Z,50.08
2018-02-08T18:28:16.094Z,39.90
2018-02-08T18:30:43.658Z,52.00
2018-02-08T18:33:11.997Z,46.63
2018-02-08T18:35:39.535Z,48.05
2018-02-08T18:38:07.055Z,45.50
2018-02-08T18:40:34.594Z,52.97
2018-02-08T18:43:02.102Z,38.63
2018-02-08T18:45:30.394Z,40.47
2018-02-08T18:47:58.710Z,48.15
2018-02-08T18:50:26.229Z,50.03
2018-02-08T18:52:53.759Z,43.25
2018-02-08T18:55:21.292Z,50.60
2018-02-08T18:57:48.892Z,49.95
2018-02-08T19:00:17.236Z,50.90
2018-02-08T19:02:44.760Z,53.17
2018-02-08T19:05:12.282Z,47.92
2018-02-08T19:07:39.814Z,51.05
2018-02-08T19:10:07.347Z,48.45
2018-02-08T19:12:34.857Z,58.15
2018-02-08T19:15:02.573Z,51.53
2018-02-08T19:17:30.113Z,62.22
2018-02-08T19:19:57.638Z,81.95
2018-02-08T19:22:25.194Z,71.25
2018-02-08T19:24:53.484Z,66.25
2018-02-08T19:27:22.159Z,44.33
2018-02-08T19:29:49.706Z,55.30
2018-02-08T19:32:17.230Z,52.10
2018-02-08T19:34:44.913Z,45.03
2018-02-08T19:37:12.452Z,49.42
2018-02-08T19:39:40.008Z,63.20
2018-02-08T19:42:07.565Z,51.90
2018-02-08T19:44:35.096Z,45.42
2018-02-08T19:47:02.637Z,52.75
2018-02-08T19:49:30.146Z,63.60
2018-02-08T19:51:57.685Z,49.47
2018-02-08T19:54:25.985Z,44.20
2018-02-08T19:56:53.606Z,45.63
2018-02-08T19:59:21.130Z,51.42
2018-02-08T20:01:48.699Z,50.25
2018-02-08T20:04:16.282Z,47.83
2018-02-08T20:06:43.862Z,47.85
2018-02-08T20:09:12.144Z,49.95
2018-02-08T20:11:39.669Z,53.45
2018-02-08T20:14:12.854Z,56.30
2018-02-08T20:16:40.410Z,43.17
2018-02-08T20:19:07.940Z,54.25
2018-02-08T20:21:35.479Z,57.97
2018-02-08T20:24:03.777Z,59.13
2018-02-08T20:26:31.303Z,54.30
2018-02-08T20:28:59.662Z,59.90
2018-02-08T20:31:29.038Z,51.83
2018-02-08T20:33:56.588Z,52.17
2018-02-08T20:36:24.158Z,53.97
2018-02-08T20:38:51.711Z,51.45
2018-02-08T20:41:19.281Z,52.55
2018-02-08T20:43:46.820Z,58.03
2018-02-08T20:46:14.397Z,55.88
2018-02-08T20:48:41.963Z,52.95
2018-02-08T20:51:09.581Z,51.45
2018-02-08T20:53:37.893Z,51.92
2018-02-08T20:56:05.475Z,51.03
2018-02-08T20:58:33.032Z,53.87
2018-02-08T21:01:00.579Z,56.35
2018-02-08T21:03:28.126Z,57.10
2018-02-08T21:05:55.699Z,49.60
2018-02-08T21:08:23.330Z,48.17
2018-02-08T21:10:50.905Z,56.37
2018-02-08T21:13:18.502Z,51.47
2018-02-08T21:15:46.120Z,58.10
2018-02-08T21:18:13.716Z,65.72
2018-02-08T21:20:41.254Z,64.62
2018-02-08T21:23:08.960Z,72.82
2018-02-08T21:25:36.566Z,56.28
2018-02-08T21:28:04.158Z,67.85
2018-02-08T21:30:32.333Z,64.10
2018-02-08T21:32:59.869Z,61.13
2018-02-08T21:35:27.414Z,58.90
2018-02-08T21:37:54.943Z,57.03
2018-02-08T21:40:22.524Z,52.05
2018-02-08T21:42:50.083Z,66.05
2018-02-08T21:45:19.524Z,54.95
2018-02-08T21:47:47.087Z,55.55
2018-02-08T21:50:14.647Z,59.38
2018-02-08T21:52:42.182Z,49.25
2018-02-08T21:55:09.755Z,54.20
2018-02-08T21:57:37.302Z,52.35
2018-02-08T22:00:04.830Z,58.28
2018-02-08T22:02:32.448Z,49.80
2018-02-08T22:05:00.691Z,57.38
2018-02-08T22:07:28.332Z,62.50
2018-02-08T22:09:55.990Z,56.30
2018-02-08T22:12:23.605Z,52.78
2018-02-08T22:14:51.178Z,55.22
2018-02-08T22:17:19.966Z,52.55
2018-02-08T22:19:47.531Z,57.13
2018-02-08T22:22:15.082Z,54.78
2018-02-08T22:24:42.611Z,55.97
2018-02-08T22:27:10.192Z,49.63
2018-02-08T22:29:37.771Z,56.05
2018-02-08T22:32:05.288Z,58.47
2018-02-08T22:34:32.831Z,59.85
2018-02-08T22:37:00.436Z,49.78
2018-02-08T22:39:28.162Z,58.28
2018-02-08T22:41:55.846Z,54.97
2018-02-08T22:44:23.374Z,48.83
2018-02-08T22:46:50.963Z,46.10
2018-02-08T22:49:18.577Z,56.97
2018-02-08T22:51:46.137Z,58.30
2018-02-08T22:54:13.739Z,56.30
2018-02-08T22:56:41.302Z,51.13
2018-02-08T22:59:08.924Z,48.45
2018-02-08T23:01:36.524Z,51.47
2018-02-08T23:04:05.028Z,56.22
2018-02-08T23:06:32.592Z,57.22
2018-02-08T23:09:00.152Z,55.15
2018-02-08T23:11:27.776Z,53.13
2018-02-08T23:13:56.153Z,62.95
2018-02-08T23:16:23.852Z,60.40
2018-02-08T23:18:51.416Z,63.20
2018-02-08T23:21:18.969Z,50.65
2018-02-08T23:23:47.221Z,66.20
2018-02-08T23:26:15.520Z,50.17
2018-02-08T23:28:43.400Z,61.83
2018-02-08T23:31:10.934Z,48.72
2018-02-08T23:33:38.507Z,56.78
2018-02-08T23:36:06.055Z,58.75
2018-02-08T23:38:34.410Z,52.65
2018-02-08T23:41:01.989Z,55.67
2018-02-08T23:43:30.290Z,51.72
2018-02-08T23:45:57.851Z,49.40
2018-02-08T23:48:25.516Z,60.60
2018-02-08T23:50:53.086Z,61.95
2018-02-08T23:53:20.835Z,54.15
2018-02-08T23:55:48.398Z,49.45
2018-02-08T23:58:15.967Z,56.28
